Portada
METAR-TAF:

METAR-TAF

Aeroports :

Subang Jaya, Malàisia

latitud: 03-07N, longitud: 101-32E, altitud: 27 m

Observació

L'informe es va fer fa 30 minuts, a les 04:00 UTC
Vent 3 kt amb direcció variable
Temperatura 32°C
Humitat 63%
Pressió 1010 hPa
Visibilitat: 7000 m
Escasses núvols a una alçada de 1800 ft

METAR: WMSA 210400Z VRB03KT 7000 FEW018 32/24 Q1010

Hora: 12:30 (04:30 UTC)

Pronòstic

L'informe es va fer fa 5 hores i 30 minuts, a les 23:00 UTC
Pronòstic vàlid del 21 a les 00 UTC al 22 a les 00 UTC
Vent 5 kt del Est/Nord-Est
Visibilitat 10 km o més
Escasses núvols a una alçada de 1700 ft, Cumulonimbus.
Temporalment
l' 21 a les 08 UTC al 21 a les 12 UTC
Vent 10 kt del Sud-Oest
Visibilitat: 3000 m
Escasses núvols a una alçada de 1600 ft, Cumulonimbus.
Núvols disperses a una alçada de 1800 ft
tempesta, pluja

TAF: WMSA 202300Z 2100/2200 07005KT 9999 FEW017CB TEMPO 2108/2112 22010KT 3000 TSRA FEW016CB SCT018

Observacions i pronòstics meteorològics de més de 4000 aeroports (METAR i TAF).

Les estacions disponibles són els punts grocs i vermells al mapa.

Posi el ratolí al punt desitjat per veure el nom de l'estació.

Feu clic per veure les observacions i els pronòstics meteorològics.

Per canviar el mapa: feu clic els botons verds amb una creu de color negre per apropar; al botó verd amb un guió per allunyar la imatge; o en les fletxes verdes per a mapes adjacents.


METAR-TAF: